sensor_id;sensor_type;location;lat;lon;timestamp;pressure;altitude;pressure_sealevel;temperature;humidity
63088;BME280;49173;43.164;27.786;2023-04-15T00:02:15;99878.28;;;14.93;62.10
63088;BME280;49173;43.164;27.786;2023-04-15T00:04:46;99869.47;;;14.91;61.79
63088;BME280;49173;43.164;27.786;2023-04-15T00:07:12;99877.69;;;14.90;61.12
63088;BME280;49173;43.164;27.786;2023-04-15T00:09:42;99873.41;;;14.87;61.09
63088;BME280;49173;43.164;27.786;2023-04-15T00:12:10;99875.00;;;14.90;61.44
63088;BME280;49173;43.164;27.786;2023-04-15T00:14:36;99877.81;;;14.88;61.57
63088;BME280;49173;43.164;27.786;2023-04-15T00:17:02;99877.94;;;14.87;62.47
63088;BME280;49173;43.164;27.786;2023-04-15T00:19:29;99876.22;;;14.86;62.41
63088;BME280;49173;43.164;27.786;2023-04-15T00:21:55;99875.34;;;14.85;62.51
63088;BME280;49173;43.164;27.786;2023-04-15T00:24:22;99874.50;;;14.84;62.73
63088;BME280;49173;43.164;27.786;2023-04-15T00:26:48;99881.75;;;14.84;63.13
63088;BME280;49173;43.164;27.786;2023-04-15T00:29:14;99884.44;;;14.84;63.15
63088;BME280;49173;43.164;27.786;2023-04-15T00:31:40;99889.25;;;14.80;64.08
63088;BME280;49173;43.164;27.786;2023-04-15T00:34:06;99883.34;;;14.75;64.33
63088;BME280;49173;43.164;27.786;2023-04-15T00:36:32;99885.69;;;14.69;63.91
63088;BME280;49173;43.164;27.786;2023-04-15T00:39:00;99894.91;;;14.66;63.53
63088;BME280;49173;43.164;27.786;2023-04-15T00:41:25;99889.00;;;14.61;63.49
63088;BME280;49173;43.164;27.786;2023-04-15T00:43:51;99892.78;;;14.59;63.74
63088;BME280;49173;43.164;27.786;2023-04-15T00:46:17;99902.84;;;14.56;63.85
63088;BME280;49173;43.164;27.786;2023-04-15T00:48:46;99897.69;;;14.53;64.72
63088;BME280;49173;43.164;27.786;2023-04-15T00:51:12;99896.09;;;14.51;65.15
63088;BME280;49173;43.164;27.786;2023-04-15T00:53:39;99899.03;;;14.48;66.22
63088;BME280;49173;43.164;27.786;2023-04-15T00:56:05;99900.75;;;14.49;67.35
63088;BME280;49173;43.164;27.786;2023-04-15T00:58:31;99899.91;;;14.48;67.58
63088;BME280;49173;43.164;27.786;2023-04-15T01:00:57;99900.03;;;14.47;67.68
63088;BME280;49173;43.164;27.786;2023-04-15T01:03:24;99904.44;;;14.48;68.05
63088;BME280;49173;43.164;27.786;2023-04-15T01:05:50;99906.16;;;14.49;68.43
63088;BME280;49173;43.164;27.786;2023-04-15T01:08:28;99900.03;;;14.47;68.92
63088;BME280;49173;43.164;27.786;2023-04-15T01:11:00;99905.28;;;14.48;68.10
63088;BME280;49173;43.164;27.786;2023-04-15T01:13:26;99896.22;;;14.49;68.41
63088;BME280;49173;43.164;27.786;2023-04-15T01:15:53;99886.25;;;14.50;67.64
63088;BME280;49173;43.164;27.786;2023-04-15T01:18:21;99881.72;;;14.50;68.03
63088;BME280;49173;43.164;27.786;2023-04-15T01:20:47;99886.91;;;14.53;68.32
63088;BME280;49173;43.164;27.786;2023-04-15T01:23:13;99879.53;;;14.55;69.33
63088;BME280;49173;43.164;27.786;2023-04-15T01:25:40;99891.91;;;14.58;69.81
63088;BME280;49173;43.164;27.786;2023-04-15T01:28:06;99893.53;;;14.61;69.84
63088;BME280;49173;43.164;27.786;2023-04-15T01:30:38;99892.69;;;14.60;69.17
63088;BME280;49173;43.164;27.786;2023-04-15T01:33:03;99887.50;;;14.57;67.80
63088;BME280;49173;43.164;27.786;2023-04-15T01:35:29;99887.97;;;14.51;67.16
63088;BME280;49173;43.164;27.786;2023-04-15T01:38:08;99887.38;;;14.47;66.61
63088;BME280;49173;43.164;27.786;2023-04-15T01:40:34;99890.41;;;14.43;66.18
63088;BME280;49173;43.164;27.786;2023-04-15T01:43:00;99886.31;;;14.37;66.50
63088;BME280;49173;43.164;27.786;2023-04-15T01:45:27;99898.13;;;14.36;67.09
63088;BME280;49173;43.164;27.786;2023-04-15T01:47:53;99907.44;;;14.32;67.33
63088;BME280;49173;43.164;27.786;2023-04-15T01:50:19;99906.69;;;14.30;67.63
63088;BME280;49173;43.164;27.786;2023-04-15T01:52:45;99905.81;;;14.29;66.89
63088;BME280;49173;43.164;27.786;2023-04-15T01:55:12;99894.44;;;14.26;66.39
63088;BME280;49173;43.164;27.786;2023-04-15T01:57:38;99892.94;;;14.22;66.83
63088;BME280;49173;43.164;27.786;2023-04-15T02:00:05;99883.72;;;14.13;67.21
63088;BME280;49173;43.164;27.786;2023-04-15T02:02:32;99886.88;;;14.07;67.79
63088;BME280;49173;43.164;27.786;2023-04-15T02:04:58;99889.97;;;14.02;68.63
63088;BME280;49173;43.164;27.786;2023-04-15T02:07:25;99893.38;;;14.05;68.81
63088;BME280;49173;43.164;27.786;2023-04-15T02:09:53;99891.28;;;14.08;69.11
63088;BME280;49173;43.164;27.786;2023-04-15T02:12:19;99894.63;;;14.12;69.78
63088;BME280;49173;43.164;27.786;2023-04-15T02:14:44;99903.47;;;14.14;69.48
63088;BME280;49173;43.164;27.786;2023-04-15T02:17:10;99901.41;;;14.17;70.41
63088;BME280;49173;43.164;27.786;2023-04-15T02:19:36;99910.22;;;14.19;69.51
63088;BME280;49173;43.164;27.786;2023-04-15T02:22:03;99913.06;;;14.18;69.57
63088;BME280;49173;43.164;27.786;2023-04-15T02:24:29;99915.25;;;14.13;69.50
63088;BME280;49173;43.164;27.786;2023-04-15T02:26:55;99914.59;;;14.09;69.73
63088;BME280;49173;43.164;27.786;2023-04-15T02:29:21;99906.03;;;14.04;69.63
63088;BME280;49173;43.164;27.786;2023-04-15T02:32:06;99909.78;;;14.01;69.54
63088;BME280;49173;43.164;27.786;2023-04-15T02:34:32;99902.81;;;13.99;69.77
63088;BME280;49173;43.164;27.786;2023-04-15T02:36:58;99903.06;;;13.96;70.16
63088;BME280;49173;43.164;27.786;2023-04-15T02:39:24;99905.00;;;13.94;70.72
63088;BME280;49173;43.164;27.786;2023-04-15T02:41:49;99899.59;;;13.94;71.19
63088;BME280;49173;43.164;27.786;2023-04-15T02:44:18;99890.75;;;13.92;71.18
63088;BME280;49173;43.164;27.786;2023-04-15T02:46:45;99889.56;;;13.96;70.88
63088;BME280;49173;43.164;27.786;2023-04-15T02:49:17;99887.47;;;13.99;70.95
63088;BME280;49173;43.164;27.786;2023-04-15T02:51:43;99888.00;;;14.05;70.67
63088;BME280;49173;43.164;27.786;2023-04-15T02:54:15;99899.31;;;14.10;70.21
63088;BME280;49173;43.164;27.786;2023-04-15T02:56:41;99890.22;;;14.11;70.74
63088;BME280;49173;43.164;27.786;2023-04-15T02:59:07;99894.50;;;14.13;70.51
63088;BME280;49173;43.164;27.786;2023-04-15T03:01:33;99895.38;;;14.14;71.05
63088;BME280;49173;43.164;27.786;2023-04-15T03:03:58;99899.91;;;14.13;71.15
63088;BME280;49173;43.164;27.786;2023-04-15T03:06:24;99896.59;;;14.10;71.63
63088;BME280;49173;43.164;27.786;2023-04-15T03:08:50;99894.13;;;14.07;71.37
63088;BME280;49173;43.164;27.786;2023-04-15T03:11:16;99898.53;;;14.08;71.45
63088;BME280;49173;43.164;27.786;2023-04-15T03:13:43;99895.97;;;14.06;72.25
63088;BME280;49173;43.164;27.786;2023-04-15T03:16:09;99895.34;;;14.02;72.18
63088;BME280;49173;43.164;27.786;2023-04-15T03:18:35;99890.06;;;14.01;71.98
63088;BME280;49173;43.164;27.786;2023-04-15T03:21:00;99884.91;;;13.98;72.74
63088;BME280;49173;43.164;27.786;2023-04-15T03:23:27;99889.44;;;13.97;72.52
63088;BME280;49173;43.164;27.786;2023-04-15T03:25:53;99894.97;;;13.96;72.56
63088;BME280;49173;43.164;27.786;2023-04-15T03:28:23;99890.16;;;13.99;72.67
63088;BME280;49173;43.164;27.786;2023-04-15T03:30:48;99885.75;;;13.98;72.71
63088;BME280;49173;43.164;27.786;2023-04-15T03:33:33;99887.47;;;13.99;73.45
63088;BME280;49173;43.164;27.786;2023-04-15T03:35:58;99892.88;;;13.99;73.14
63088;BME280;49173;43.164;27.786;2023-04-15T03:38:24;99892.66;;;14.02;73.66
63088;BME280;49173;43.164;27.786;2023-04-15T03:40:50;99890.91;;;14.01;73.87
63088;BME280;49173;43.164;27.786;2023-04-15T03:43:16;99889.97;;;14.02;74.50
63088;BME280;49173;43.164;27.786;2023-04-15T03:45:41;99896.94;;;14.05;74.30
63088;BME280;49173;43.164;27.786;2023-04-15T03:48:07;99897.69;;;14.07;74.83
63088;BME280;49173;43.164;27.786;2023-04-15T03:50:33;99905.66;;;14.09;74.97
63088;BME280;49173;43.164;27.786;2023-04-15T03:52:58;99902.00;;;14.10;74.92
63088;BME280;49173;43.164;27.786;2023-04-15T03:55:26;99903.06;;;14.07;73.95
63088;BME280;49173;43.164;27.786;2023-04-15T03:57:52;99905.78;;;14.07;73.48
63088;BME280;49173;43.164;27.786;2023-04-15T04:00:17;99903.19;;;14.06;72.94
63088;BME280;49173;43.164;27.786;2023-04-15T04:02:44;99907.09;;;14.01;72.58
63088;BME280;49173;43.164;27.786;2023-04-15T04:05:10;99907.47;;;13.97;72.45
63088;BME280;49173;43.164;27.786;2023-04-15T04:07:36;99908.66;;;13.93;72.17
63088;BME280;49173;43.164;27.786;2023-04-15T04:10:02;99901.56;;;13.92;72.13
63088;BME280;49173;43.164;27.786;2023-04-15T04:12:28;99905.22;;;13.91;72.25
63088;BME280;49173;43.164;27.786;2023-04-15T04:14:54;99908.06;;;13.89;72.78
63088;BME280;49173;43.164;27.786;2023-04-15T04:17:20;99908.16;;;13.88;73.35
63088;BME280;49173;43.164;27.786;2023-04-15T04:19:46;99912.59;;;13.89;73.62
63088;BME280;49173;43.164;27.786;2023-04-15T04:22:11;99916.03;;;13.91;74.34
63088;BME280;49173;43.164;27.786;2023-04-15T04:24:37;99910.63;;;13.91;74.65
63088;BME280;49173;43.164;27.786;2023-04-15T04:27:03;99917.75;;;13.92;74.38
63088;BME280;49173;43.164;27.786;2023-04-15T04:29:29;99925.72;;;13.93;74.66
63088;BME280;49173;43.164;27.786;2023-04-15T04:31:55;99923.78;;;13.95;75.19
63088;BME280;49173;43.164;27.786;2023-04-15T04:34:20;99918.00;;;14.00;75.49
63088;BME280;49173;43.164;27.786;2023-04-15T04:36:46;99911.16;;;14.07;75.82
63088;BME280;49173;43.164;27.786;2023-04-15T04:39:12;99925.44;;;14.20;75.71
63088;BME280;49173;43.164;27.786;2023-04-15T04:41:37;99924.00;;;14.27;76.31
63088;BME280;49173;43.164;27.786;2023-04-15T04:44:03;99924.50;;;14.44;75.83
63088;BME280;49173;43.164;27.786;2023-04-15T04:46:29;99920.28;;;14.64;75.74
63088;BME280;49173;43.164;27.786;2023-04-15T04:48:55;99922.03;;;14.87;74.06
63088;BME280;49173;43.164;27.786;2023-04-15T04:51:21;99918.59;;;14.96;73.52
63088;BME280;49173;43.164;27.786;2023-04-15T04:53:47;99916.03;;;14.95;72.78
63088;BME280;49173;43.164;27.786;2023-04-15T04:56:13;99915.25;;;14.93;72.85
63088;BME280;49173;43.164;27.786;2023-04-15T04:58:38;99925.97;;;14.94;73.11
63088;BME280;49173;43.164;27.786;2023-04-15T05:01:04;99921.53;;;14.93;73.08
63088;BME280;49173;43.164;27.786;2023-04-15T05:03:30;99916.38;;;14.90;73.19
63088;BME280;49173;43.164;27.786;2023-04-15T05:05:56;99916.38;;;14.90;73.07
63088;BME280;49173;43.164;27.786;2023-04-15T05:08:22;99913.53;;;14.92;73.10
63088;BME280;49173;43.164;27.786;2023-04-15T05:10:48;99907.78;;;14.96;73.28
63088;BME280;49173;43.164;27.786;2023-04-15T05:13:14;99907.78;;;14.96;73.00
63088;BME280;49173;43.164;27.786;2023-04-15T05:15:39;99912.94;;;14.99;73.09
63088;BME280;49173;43.164;27.786;2023-04-15T05:18:07;99911.47;;;14.95;73.27
63088;BME280;49173;43.164;27.786;2023-04-15T05:20:33;99915.25;;;14.93;73.76
63088;BME280;49173;43.164;27.786;2023-04-15T05:22:59;99924.75;;;14.87;73.76
63088;BME280;49173;43.164;27.786;2023-04-15T05:25:25;99919.69;;;14.82;73.39
63088;BME280;49173;43.164;27.786;2023-04-15T05:27:51;99944.75;;;14.84;73.19
63088;BME280;49173;43.164;27.786;2023-04-15T05:30:17;99960.81;;;14.86;72.68
63088;BME280;49173;43.164;27.786;2023-04-15T05:32:43;99961.69;;;14.87;72.30
63088;BME280;49173;43.164;27.786;2023-04-15T05:35:08;99972.00;;;14.81;71.62
63088;BME280;49173;43.164;27.786;2023-04-15T05:37:34;99968.16;;;14.73;71.72
63088;BME280;49173;43.164;27.786;2023-04-15T05:40:00;99976.03;;;14.65;71.82
63088;BME280;49173;43.164;27.786;2023-04-15T05:42:25;99991.75;;;14.60;72.15
63088;BME280;49173;43.164;27.786;2023-04-15T05:44:51;99989.25;;;14.56;73.71
63088;BME280;49173;43.164;27.786;2023-04-15T05:47:17;99996.84;;;14.51;74.55
63088;BME280;49173;43.164;27.786;2023-04-15T05:49:43;99990.72;;;14.49;75.78
63088;BME280;49173;43.164;27.786;2023-04-15T05:52:10;100015.47;;;14.43;75.74
63088;BME280;49173;43.164;27.786;2023-04-15T05:54:36;100014.31;;;14.35;75.41
63088;BME280;49173;43.164;27.786;2023-04-15T05:57:02;100013.41;;;14.23;75.84
63088;BME280;49173;43.164;27.786;2023-04-15T05:59:28;100020.03;;;14.19;76.71
63088;BME280;49173;43.164;27.786;2023-04-15T06:01:54;100035.38;;;14.18;77.46
63088;BME280;49173;43.164;27.786;2023-04-15T06:04:19;100027.72;;;14.12;78.18
63088;BME280;49173;43.164;27.786;2023-04-15T06:06:46;100029.56;;;14.12;78.56
63088;BME280;49173;43.164;27.786;2023-04-15T06:09:12;100023.19;;;14.13;79.14
63088;BME280;49173;43.164;27.786;2023-04-15T06:11:38;100024.91;;;14.14;79.94
63088;BME280;49173;43.164;27.786;2023-04-15T06:14:06;100030.31;;;14.14;80.41
63088;BME280;49173;43.164;27.786;2023-04-15T06:16:32;100019.47;;;14.02;80.92
63088;BME280;49173;43.164;27.786;2023-04-15T06:18:58;100023.38;;;13.98;81.36
63088;BME280;49173;43.164;27.786;2023-04-15T06:21:24;100038.72;;;13.85;81.67
63088;BME280;49173;43.164;27.786;2023-04-15T06:23:50;100041.75;;;13.81;82.64
63088;BME280;49173;43.164;27.786;2023-04-15T06:26:15;100041.88;;;13.79;83.06
63088;BME280;49173;43.164;27.786;2023-04-15T06:28:41;100036.72;;;13.76;82.95
63088;BME280;49173;43.164;27.786;2023-04-15T06:31:07;100042.97;;;13.77;83.53
63088;BME280;49173;43.164;27.786;2023-04-15T06:33:33;100032.81;;;13.80;84.21
63088;BME280;49173;43.164;27.786;2023-04-15T06:35:59;100034.31;;;13.84;84.17
63088;BME280;49173;43.164;27.786;2023-04-15T06:38:26;100037.53;;;13.89;84.43
63088;BME280;49173;43.164;27.786;2023-04-15T06:40:51;100036.13;;;13.96;84.47
63088;BME280;49173;43.164;27.786;2023-04-15T06:43:17;100026.91;;;13.99;83.96
63088;BME280;49173;43.164;27.786;2023-04-15T06:45:43;100020.66;;;13.98;84.60
63088;BME280;49173;43.164;27.786;2023-04-15T06:48:08;100021.13;;;13.92;84.38
63088;BME280;49173;43.164;27.786;2023-04-15T06:50:34;100031.56;;;13.97;84.93
63088;BME280;49173;43.164;27.786;2023-04-15T06:53:02;100034.78;;;14.02;85.03
63088;BME280;49173;43.164;27.786;2023-04-15T06:55:28;100038.81;;;13.96;84.95
63088;BME280;49173;43.164;27.786;2023-04-15T06:57:54;100028.75;;;13.98;84.99
63088;BME280;49173;43.164;27.786;2023-04-15T07:00:20;100038.97;;;14.06;84.32
63088;BME280;49173;43.164;27.786;2023-04-15T07:02:45;100040.13;;;14.15;83.72
63088;BME280;49173;43.164;27.786;2023-04-15T07:05:12;100050.25;;;14.24;83.90
63088;BME280;49173;43.164;27.786;2023-04-15T07:07:37;100064.03;;;14.32;83.96
63088;BME280;49173;43.164;27.786;2023-04-15T07:10:04;100061.09;;;14.35;83.50
63088;BME280;49173;43.164;27.786;2023-04-15T07:12:29;100058.16;;;14.38;83.16
63088;BME280;49173;43.164;27.786;2023-04-15T07:14:55;100063.66;;;14.37;83.16
63088;BME280;49173;43.164;27.786;2023-04-15T07:17:21;100058.38;;;14.35;82.60
63088;BME280;49173;43.164;27.786;2023-04-15T07:19:47;100061.41;;;14.30;82.62
63088;BME280;49173;43.164;27.786;2023-04-15T07:22:12;100065.22;;;14.28;82.45
63088;BME280;49173;43.164;27.786;2023-04-15T07:24:38;100056.38;;;14.26;82.59
63088;BME280;49173;43.164;27.786;2023-04-15T07:27:04;100059.59;;;14.31;82.07
63088;BME280;49173;43.164;27.786;2023-04-15T07:29:30;100060.00;;;14.38;82.84
63088;BME280;49173;43.164;27.786;2023-04-15T07:31:56;100067.75;;;14.42;83.53
63088;BME280;49173;43.164;27.786;2023-04-15T07:34:21;100064.72;;;14.47;83.90
63088;BME280;49173;43.164;27.786;2023-04-15T07:36:47;100060.22;;;14.59;83.95
63088;BME280;49173;43.164;27.786;2023-04-15T07:39:17;100052.41;;;14.67;83.72
63088;BME280;49173;43.164;27.786;2023-04-15T07:41:43;100060.78;;;14.75;83.19
63088;BME280;49173;43.164;27.786;2023-04-15T07:44:09;100061.31;;;14.80;83.06
63088;BME280;49173;43.164;27.786;2023-04-15T07:46:35;100057.34;;;14.84;82.01
63088;BME280;49173;43.164;27.786;2023-04-15T07:49:02;100048.75;;;14.79;80.39
63088;BME280;49173;43.164;27.786;2023-04-15T07:51:28;100051.09;;;14.83;80.05
63088;BME280;49173;43.164;27.786;2023-04-15T07:53:55;100051.47;;;14.90;79.12
63088;BME280;49173;43.164;27.786;2023-04-15T07:56:21;100043.63;;;14.98;78.81
63088;BME280;49173;43.164;27.786;2023-04-15T07:58:46;100049.69;;;15.02;77.54
63088;BME280;49173;43.164;27.786;2023-04-15T08:01:12;100049.06;;;15.09;77.06
63088;BME280;49173;43.164;27.786;2023-04-15T08:03:38;100046.63;;;15.18;77.07
63088;BME280;49173;43.164;27.786;2023-04-15T08:06:04;100045.88;;;15.27;76.89
63088;BME280;49173;43.164;27.786;2023-04-15T08:08:30;100051.53;;;15.35;75.56
63088;BME280;49173;43.164;27.786;2023-04-15T08:10:57;100061.84;;;15.41;75.48
63088;BME280;49173;43.164;27.786;2023-04-15T08:13:24;100061.72;;;15.43;75.01
63088;BME280;49173;43.164;27.786;2023-04-15T08:16:12;100061.13;;;15.50;74.90
63088;BME280;49173;43.164;27.786;2023-04-15T08:18:38;100058.78;;;15.57;75.31
63088;BME280;49173;43.164;27.786;2023-04-15T08:21:04;100045.38;;;15.55;75.86
63088;BME280;49173;43.164;27.786;2023-04-15T08:23:30;100045.25;;;15.57;75.77
63088;BME280;49173;43.164;27.786;2023-04-15T08:25:57;100046.75;;;15.61;76.22
63088;BME280;49173;43.164;27.786;2023-04-15T08:28:23;100040.47;;;15.60;76.54
63088;BME280;49173;43.164;27.786;2023-04-15T08:30:48;100040.47;;;15.60;76.61
63088;BME280;49173;43.164;27.786;2023-04-15T08:33:15;100050.97;;;15.65;76.86
63088;BME280;49173;43.164;27.786;2023-04-15T08:35:41;100066.81;;;15.70;75.72
63088;BME280;49173;43.164;27.786;2023-04-15T08:38:06;100078.97;;;15.75;76.29
63088;BME280;49173;43.164;27.786;2023-04-15T08:40:41;100065.09;;;15.80;76.06
63088;BME280;49173;43.164;27.786;2023-04-15T08:43:11;100075.16;;;15.78;75.65
63088;BME280;49173;43.164;27.786;2023-04-15T08:45:38;100076.50;;;15.83;75.82
63088;BME280;49173;43.164;27.786;2023-04-15T08:48:04;100077.59;;;15.92;75.36
63088;BME280;49173;43.164;27.786;2023-04-15T08:50:31;100074.16;;;16.01;75.20
63088;BME280;49173;43.164;27.786;2023-04-15T08:53:00;100067.25;;;16.08;75.45
63088;BME280;49173;43.164;27.786;2023-04-15T08:55:29;100080.28;;;16.03;75.29
63088;BME280;49173;43.164;27.786;2023-04-15T08:57:58;100079.16;;;16.06;75.36
63088;BME280;49173;43.164;27.786;2023-04-15T09:00:24;100085.81;;;16.13;76.44
63088;BME280;49173;43.164;27.786;2023-04-15T09:02:51;100077.44;;;16.16;75.84
63088;BME280;49173;43.164;27.786;2023-04-15T09:05:36;100071.63;;;16.20;75.78
63088;BME280;49173;43.164;27.786;2023-04-15T09:08:03;100083.66;;;16.28;75.72
63088;BME280;49173;43.164;27.786;2023-04-15T09:10:30;100086.63;;;16.36;75.76
63088;BME280;49173;43.164;27.786;2023-04-15T09:12:57;100085.22;;;16.41;74.21
63088;BME280;49173;43.164;27.786;2023-04-15T09:15:25;100084.72;;;16.47;73.77
63088;BME280;49173;43.164;27.786;2023-04-15T09:17:55;100077.69;;;16.56;74.38
63088;BME280;49173;43.164;27.786;2023-04-15T09:20:21;100075.69;;;16.58;73.36
63088;BME280;49173;43.164;27.786;2023-04-15T09:22:48;100080.84;;;16.61;72.53
63088;BME280;49173;43.164;27.786;2023-04-15T09:27:50;100072.94;;;16.69;71.90
63088;BME280;49173;43.164;27.786;2023-04-15T09:30:17;100081.56;;;16.74;71.77
63088;BME280;49173;43.164;27.786;2023-04-15T09:32:50;100091.75;;;16.82;72.21
63088;BME280;49173;43.164;27.786;2023-04-15T09:35:17;100083.28;;;16.96;74.45
63088;BME280;49173;43.164;27.786;2023-04-15T09:37:43;100087.28;;;17.13;74.89
63088;BME280;49173;43.164;27.786;2023-04-15T09:40:09;100084.75;;;17.21;73.75
63088;BME280;49173;43.164;27.786;2023-04-15T09:42:35;100091.94;;;17.32;73.64
63088;BME280;49173;43.164;27.786;2023-04-15T09:45:10;100088.28;;;17.43;74.11
63088;BME280;49173;43.164;27.786;2023-04-15T09:47:36;100083.03;;;17.51;72.57
63088;BME280;49173;43.164;27.786;2023-04-15T09:50:02;100097.47;;;17.51;72.51
63088;BME280;49173;43.164;27.786;2023-04-15T09:52:29;100088.47;;;17.51;71.72
63088;BME280;49173;43.164;27.786;2023-04-15T09:54:57;100090.66;;;17.57;69.88
63088;BME280;49173;43.164;27.786;2023-04-15T09:57:23;100092.94;;;17.62;69.70
63088;BME280;49173;43.164;27.786;2023-04-15T09:59:50;100091.28;;;17.70;69.23
63088;BME280;49173;43.164;27.786;2023-04-15T10:02:17;100080.03;;;17.75;68.09
63088;BME280;49173;43.164;27.786;2023-04-15T10:04:47;100077.31;;;17.75;67.40
63088;BME280;49173;43.164;27.786;2023-04-15T10:07:14;100092.47;;;17.77;67.38
63088;BME280;49173;43.164;27.786;2023-04-15T10:09:41;100084.19;;;17.79;67.57
63088;BME280;49173;43.164;27.786;2023-04-15T10:12:10;100081.09;;;17.83;67.36
63088;BME280;49173;43.164;27.786;2023-04-15T10:14:37;100082.66;;;17.86;67.04
63088;BME280;49173;43.164;27.786;2023-04-15T10:17:04;100082.50;;;17.88;66.53
63088;BME280;49173;43.164;27.786;2023-04-15T10:19:34;100089.53;;;17.90;66.44
63088;BME280;49173;43.164;27.786;2023-04-15T10:22:02;100082.66;;;17.96;67.38
63088;BME280;49173;43.164;27.786;2023-04-15T10:24:30;100082.66;;;17.96;66.39
63088;BME280;49173;43.164;27.786;2023-04-15T10:26:58;100067.69;;;18.01;66.66
63088;BME280;49173;43.164;27.786;2023-04-15T10:29:24;100065.97;;;18.10;67.15
63088;BME280;49173;43.164;27.786;2023-04-15T10:31:54;100061.72;;;18.17;66.66
63088;BME280;49173;43.164;27.786;2023-04-15T10:34:22;100060.31;;;18.32;67.61
63088;BME280;49173;43.164;27.786;2023-04-15T10:36:48;100058.31;;;18.44;67.37
63088;BME280;49173;43.164;27.786;2023-04-15T10:42:09;100060.03;;;18.64;65.07
63088;BME280;49173;43.164;27.786;2023-04-15T10:44:36;100053.19;;;18.70;65.32
63088;BME280;49173;43.164;27.786;2023-04-15T10:47:16;100057.22;;;18.76;65.08
63088;BME280;49173;43.164;27.786;2023-04-15T10:49:59;100049.34;;;18.82;65.37
63088;BME280;49173;43.164;27.786;2023-04-15T10:52:27;100058.31;;;18.92;63.14
63088;BME280;49173;43.164;27.786;2023-04-15T10:57:38;100060.28;;;19.10;63.49
63088;BME280;49173;43.164;27.786;2023-04-15T11:00:12;100050.56;;;19.17;63.37
63088;BME280;49173;43.164;27.786;2023-04-15T11:02:55;100056.66;;;19.29;62.79
63088;BME280;49173;43.164;27.786;2023-04-15T11:08:09;100052.63;;;19.42;58.85
63088;BME280;49173;43.164;27.786;2023-04-15T11:13:03;100048.00;;;19.53;58.05
63088;BME280;49173;43.164;27.786;2023-04-15T11:15:33;100034.09;;;19.56;57.75
63088;BME280;49173;43.164;27.786;2023-04-15T11:18:17;100048.00;;;19.62;56.26
63088;BME280;49173;43.164;27.786;2023-04-15T11:20:45;100045.69;;;19.67;55.07
63088;BME280;49173;43.164;27.786;2023-04-15T11:23:13;100052.09;;;19.76;57.18
63088;BME280;49173;43.164;27.786;2023-04-15T11:25:39;100050.31;;;19.85;57.42
63088;BME280;49173;43.164;27.786;2023-04-15T11:28:10;100050.56;;;19.91;55.15
63088;BME280;49173;43.164;27.786;2023-04-15T11:30:40;100045.53;;;19.96;55.50
63088;BME280;49173;43.164;27.786;2023-04-15T11:33:10;100047.78;;;20.01;54.16
63088;BME280;49173;43.164;27.786;2023-04-15T11:35:44;100042.56;;;20.08;54.55
63088;BME280;49173;43.164;27.786;2023-04-15T11:38:13;100042.03;;;20.04;53.88
63088;BME280;49173;43.164;27.786;2023-04-15T11:40:41;100049.03;;;20.07;53.65
63088;BME280;49173;43.164;27.786;2023-04-15T11:43:16;100050.53;;;20.19;53.46
63088;BME280;49173;43.164;27.786;2023-04-15T11:45:52;100044.00;;;20.29;53.27
63088;BME280;49173;43.164;27.786;2023-04-15T11:48:26;100040.53;;;20.37;53.65
63088;BME280;49173;43.164;27.786;2023-04-15T11:51:06;100041.31;;;20.47;53.38
63088;BME280;49173;43.164;27.786;2023-04-15T11:53:43;100043.72;;;20.50;51.44
63088;BME280;49173;43.164;27.786;2023-04-15T11:56:20;100042.09;;;20.57;50.07
63088;BME280;49173;43.164;27.786;2023-04-15T11:58:51;100031.19;;;20.57;51.12
63088;BME280;49173;43.164;27.786;2023-04-15T12:01:32;100027.75;;;20.55;50.91
63088;BME280;49173;43.164;27.786;2023-04-15T12:04:01;100024.25;;;20.63;50.49
63088;BME280;49173;43.164;27.786;2023-04-15T12:06:36;100016.00;;;20.73;51.33
63088;BME280;49173;43.164;27.786;2023-04-15T12:09:10;100016.69;;;20.75;50.02
63088;BME280;49173;43.164;27.786;2023-04-15T12:11:50;100022.19;;;20.83;51.40
63088;BME280;49173;43.164;27.786;2023-04-15T12:16:49;100016.56;;;21.02;51.00
63088;BME280;49173;43.164;27.786;2023-04-15T12:19:22;100017.00;;;21.16;49.49
63088;BME280;49173;43.164;27.786;2023-04-15T12:21:51;100017.56;;;21.27;48.48
63088;BME280;49173;43.164;27.786;2023-04-15T12:24:21;100017.69;;;21.44;48.09
63088;BME280;49173;43.164;27.786;2023-04-15T12:26:55;100007.19;;;21.57;47.74
63088;BME280;49173;43.164;27.786;2023-04-15T12:29:29;100008.41;;;21.71;48.01
63088;BME280;49173;43.164;27.786;2023-04-15T12:31:57;100015.63;;;21.80;46.55
63088;BME280;49173;43.164;27.786;2023-04-15T12:34:35;100008.97;;;21.82;44.30
63088;BME280;49173;43.164;27.786;2023-04-15T12:37:06;100015.28;;;21.83;44.00
63088;BME280;49173;43.164;27.786;2023-04-15T12:39:39;100021.31;;;21.94;45.54
63088;BME280;49173;43.164;27.786;2023-04-15T12:42:07;100016.22;;;22.00;43.73
63088;BME280;49173;43.164;27.786;2023-04-15T12:44:35;100012.47;;;22.01;43.44
63088;BME280;49173;43.164;27.786;2023-04-15T12:47:03;100004.44;;;22.07;41.48
63088;BME280;49173;43.164;27.786;2023-04-15T12:49:31;100016.91;;;22.02;41.09
63088;BME280;49173;43.164;27.786;2023-04-15T12:52:01;100020.00;;;22.07;42.09
63088;BME280;49173;43.164;27.786;2023-04-15T12:54:29;100007.59;;;22.20;42.81
63088;BME280;49173;43.164;27.786;2023-04-15T12:56:59;100011.69;;;22.33;42.76
63088;BME280;49173;43.164;27.786;2023-04-15T12:59:27;100006.41;;;22.39;41.67
63088;BME280;49173;43.164;27.786;2023-04-15T13:01:59;100008.16;;;22.48;40.74
63088;BME280;49173;43.164;27.786;2023-04-15T13:04:27;99998.03;;;22.41;38.08